Racecast

Drew Vidano

Unattached (TX) · FR · PIKES PEAK ATHLETICCO D4A4A · Compare head to head

Athlete rating 97.8 2018 XC season
Best race 128.1 TF
Races 62
Seasons 5 2014 — 2018

RankedTeam #154 ?

Rating scale ?
Speed rating — all races

Cross Country

XC speed rating

2018 XC 96.7

Unattached (TX) · Grade FR

Date Meet Event Result Place Rating Difficulty PR/SR Flags
2018-10-20 Sudden Valley Golf Coursev 10000m 37:06 128th · 12th on team 98.1 +0.056 ★PR ★CR SR CSR RSR
2018-10-06 ''Upper'' Lower Woodland Park 8000m 30:18 63rd · 14th on team 94.6 +0.023 ★PR ★CR SR CSR
2018-09-22 St. Martin's University 8000m 30:25.2 100th · 10th on team 96.6 +0.036 PR ★CR SR CSR
2018-09-15 Rotary Park 7000m 25:52 36th · 8th on team 97.6 +0.025 ★PR ★CR SR CSR RSR

2017 XC 126.3

Palmer Ridge (CO) · Grade 12

Date Meet Event Result Place Rating Difficulty PR/SR Flags
2017-10-28 Norris Penrose Event Center 5000m 16:52.1 39th · 6th on team 128.0 +0.067 ★CR R CSR RSR
2017-10-19 Monument Valley Park 5000m 16:57 18th · 8th on team 124.9 +0.031 ★CR CSR
2017-10-04 Air Academy High School 5000m 17:17.5 8th · 3rd on team 125.8 +0.060 ★CR CSR
2017-09-30 Polson Ranch 5000m 17:02 24th · 5th on team 126.5 +0.040 ★CR CSR
2017-09-16 Silverlakes Sports Park 4828m 15:28.5 118th · 5th on team 124.8 -0.013 ★PR ★CR SR CSR
2017-09-09 Lyons Middle/High School 5000m 16:43 13th · 2nd on team 127.7 +0.046 ★PR ★CR R SR CSR RSR
2017-08-25 Mountain Vista High School 3218m 10:40 19th · 4th on team 126.5 +0.067 ★CR R SR CSR RSR

2016 XC 123.1

Palmer Ridge (CO) · Grade 11

Date Meet Event Result Place Rating Difficulty PR/SR Flags
2016-11-19 Grande Sports Complex 5000m 17:19 68th · 4th on team 120.4 +0.004 ★CR CSR
2016-11-12 Cheyenne Mountain High School 3218m 10:35.9 19th · 9th on team 123.3 +0.034 ★PR ★CR SR CSR
2016-10-20 Widefield Community Park 5000m 17:54 14th · 8th on team 121.6 +0.064 ★CR CSR
2016-09-17 Silverlakes Sports Park 4828m 15:51 11th · 3rd on team 124.3 -0.013 PR CR SR CSR
2016-08-25 Norris Penrose Event Center 5000m 17:12.6 21st · 3rd on team 125.9 +0.067 PR CR R SR CSR RSR

2015 XC 115.9

Palmer Ridge (CO) · Grade 10

Date Meet Event Result Place Rating Difficulty PR/SR Flags
2015-11-21 Grande Sports Complex 5000m 17:21 70th · 4th on team 119.4 +0.004 PR CR R SR CSR RSR
2015-10-03 Polson Ranch 5000m 18:27.8 76th · 3rd on team 115.1 +0.040 CR CSR
2015-09-19 Elmwood Golf Course 5000m 17:57 5th · 2nd on team 118.6 +0.038 PR ★CR R SR CSR RSR
2015-09-12 Lyons Middle/High School 5000m 18:39 81st · 9th on team 113.4 +0.046 PR CR SR CSR
2015-09-04 Julia deKoevend Park 5000m 18:44 18th · 1st on team 115.4 +0.054 PR ★CR R SR CSR RSR
2015-08-28 Mountain Vista High School 3218m 11:52 42nd · 10th on team 113.7 +0.067 PR CR R SR CSR RSR

2014 XC 111.2

Palmer Ridge (CO) · Grade 9

Date Meet Event Result Place Rating Difficulty PR/SR Flags
2014-10-02 Bear Creek Regional Park 5000m 18:56.4 10th · 10th on team 113.1 +0.043 PR ★CR R SR CSR RSR
2014-09-11 Air Academy High School 5000m 19:32.6 46th · 9th on team 110.6 +0.060 PR CR R SR CSR RSR
2014-09-06 Lyons Middle/High School 5000m 19:38 26th · 6th on team 109.9 +0.046 PR CR R SR CSR RSR

Track & Field

TF speed rating

2018 TF 125.6

Palmer Ridge (CO) · Grade 12

Date Meet Event Result Place Rating Difficulty PR/SR Flags
2018-05-11 St. Vrain Invitational 1600m 4:36.56 34th · 3rd on team 126.4 -0.015
2018-05-04 The Pueblo Twilight 1600m 4:35.97 12th · 4th on team 126.7 -0.011
2018-04-28 Vista Ridge Classic 800m 2:05.26 7th · 2nd on team 127.5 +0.014
2018-04-27 Stutler Bowl Twilight Invitational 1600m 4:32.14 10th · 1st on team 128.1 -0.014 ★PR ★R SR RSR
2018-04-13 Pikes Peak Athletic Conference Meet 3200m 10:06.38 4th · 1st on team 127.0 -0.006 ★PR SR
2018-04-13 Pikes Peak Athletic Conference Meet 800m 2:10.17 4th · 1st on team 121.7 -0.006
2018-04-07 Mullen Invitational 1600m 4:36.65 32nd · 1st on team 126.4 -0.014 PR SR
2018-04-07 Mullen Invitational 800m 2:03.37 25th · 1st on team 126.3 -0.014 ★PR SR
2018-03-17 Thunder Ridge Invitational 3200m 10:16.64 2nd · 1st on team 124.2 -0.003
2018-03-10 Boulder Snow Invitational 3200m 10:14.37 8th · 4th on team 123.1 -0.012 PR SR
2018-02-03 UW HS Invitational 3000m 9:08.09 36th · 2nd on team 123.9 -0.046 ★PR SR
2018-01-21 USATF Colorado All Comer 1500m 4:19.21 2nd · 2nd on team 127.2 -0.004 ★PR SR RSR
2018-01-14 Martin Luther King Jr. Mile High Classic 1mile 4:47.72 7th · 4th on team 124.1 -0.004 ★PR SR RSR

2017 TF 120.0

Palmer Ridge (CO) · Grade 11

Date Meet Event Result Place Rating Difficulty PR/SR Flags
2017-05-06 Doherty Spartan Invitational 1600m 4:47.39 10th · 2nd on team 122.2 -0.004 RSR
2017-04-22 Dakota Ridge Invitational 800m 2:10.37 34th · 1st on team 118.5 -0.011 PR SR
2017-04-22 Dakota Ridge Invitational 3200m 10:21.8 21st · 4th on team 120.8 -0.011 SR
2017-04-13 R2J Invite 3200m 10:27.51 3rd · 1st on team 121.7 -0.004 SR RSR
2017-04-08 Mullen Runners Roost Invitational 1600m 4:51.6 41st · 3rd on team 119.3 -0.014
2017-03-30 Lyons Invitational 3200m 10:34.9 14th · 2nd on team 119.5 -0.007 SR
2017-03-25 Broomfield Shootout 1600m 4:47.16 18th · 2nd on team 121.2 -0.012 PR SR
2017-02-04 Air Force HS Indoor Open 400m 59.51 76th · 7th on team -0.004
2017-02-04 Air Force HS Indoor Open 1mile 4:52.77 22nd · 7th on team 121.6 -0.004 PR SR RSR
2017-01-15 Martin Luther King Mile High Classic 1mile 5:08.57 12th · 10th on team 115.3 -0.004 PR SR RSR
2017-01-15 Martin Luther King Mile High Classic 400m 57.95 34th · 14th on team -0.004 ★PR SR

2016 TF 118.4

Palmer Ridge (CO) · Grade 10

Date Meet Event Result Place Rating Difficulty PR/SR Flags
2016-05-06 The Pueblo Twilight 3200m 10:19.85 23rd · 3rd on team 121.7 -0.011 PR R SR RSR
2016-04-27 PPAC JV Meet 800m 2:17.62 3rd · 3rd on team 115.2 +0.014 PR SR
2016-04-27 PPAC JV Meet 1600m 4:58.05 1st · 1st on team 119.5 +0.014 PR R SR RSR
2016-04-02 Altitude Running Invitational 3200m 10:47.89 16th · 2nd on team 117.1 -0.011 PR SR RSR
2016-04-02 Altitude Running Invitational 400m 59.72 31st · 2nd on team -0.011 PR SR
2016-01-08 Meet results → Men's Mile 5:34.59 17th · 6th on team ★PR SR
2016-01-08 Meet results → Men's 800 Meters 2:29.41 26th · 9th on team ★PR SR
2015-12-11 Meet results → Men's 1000 Meters 3:04.17 10th · 3rd on team ★PR SR

2015 TF 110.3

Palmer Ridge (CO) · Grade 9

Date Meet Event Result Place Rating Difficulty PR/SR Flags
2015-04-24 Indian Invitational 1600m 5:16.66 19th · 5th on team 112.9 +0.012 PR SR RSR
2015-04-20 Lewis-Palmer Frosh-Soph Invitational 3200m 11:35.63 5th · 1st on team 111.8 +0.018 PR SR
2015-04-11 Glenn Peterson Invitational 3200m 12:01.72 16th · 2nd on team 107.1 +0.015 PR SR
2015-04-03 Palmer Terror Frosh-Soph 1600m 5:16.81 11th · 3rd on team 112.1 +0.004 PR SR RSR
2015-03-14 Valor Christian Invitational 1600m 5:24.63 42nd · 4th on team 107.6 -0.010 PR SR RSR